createdAt,value
2022-10-07T00:00:00.306Z,13.56
2022-10-07T00:01:00.663Z,13.56
2022-10-07T00:02:00.430Z,13.52
2022-10-07T00:03:00.271Z,13.52
2022-10-07T00:04:00.265Z,13.52
2022-10-07T00:05:00.416Z,13.52
2022-10-07T00:06:01.215Z,13.52
2022-10-07T00:07:00.262Z,13.50
2022-10-07T00:08:00.263Z,13.50
2022-10-07T00:09:00.257Z,13.50
2022-10-07T00:10:00.468Z,13.50
2022-10-07T00:11:05.324Z,13.50
2022-10-07T00:12:00.320Z,13.48
2022-10-07T00:13:00.260Z,13.48
2022-10-07T00:14:01.189Z,13.48
2022-10-07T00:15:00.263Z,13.48
2022-10-07T00:16:02.134Z,13.48
2022-10-07T00:17:00.326Z,13.43
2022-10-07T00:18:00.268Z,13.43
2022-10-07T00:19:02.238Z,13.43
2022-10-07T00:20:00.284Z,13.43
2022-10-07T00:21:02.331Z,13.43
2022-10-07T00:22:00.264Z,13.43
2022-10-07T00:23:00.263Z,13.43
2022-10-07T00:24:00.541Z,13.43
2022-10-07T00:25:00.284Z,13.43
2022-10-07T00:26:01.294Z,13.43
2022-10-07T00:27:00.291Z,13.38
2022-10-07T00:28:00.348Z,13.38
2022-10-07T00:29:00.869Z,13.38
2022-10-07T00:30:00.316Z,13.38
2022-10-07T00:31:01.240Z,13.38
2022-10-07T00:32:00.461Z,13.37
2022-10-07T00:33:00.255Z,13.37
2022-10-07T00:34:00.568Z,13.37
2022-10-07T00:35:00.364Z,13.37
2022-10-07T00:36:00.412Z,13.37
2022-10-07T00:37:00.285Z,13.39
2022-10-07T00:38:00.280Z,13.39
2022-10-07T00:39:01.672Z,13.39
2022-10-07T00:40:00.369Z,13.39
2022-10-07T00:41:00.381Z,13.39
2022-10-07T00:42:00.266Z,13.38
2022-10-07T00:43:10.161Z,13.38
2022-10-07T00:44:10.283Z,13.38
2022-10-07T00:45:00.286Z,13.38
2022-10-07T00:46:05.761Z,13.38
2022-10-07T00:47:03.940Z,13.33
2022-10-07T00:48:00.401Z,13.33
2022-10-07T00:49:02.922Z,13.33
2022-10-07T00:50:01.288Z,13.33
2022-10-07T00:51:00.847Z,13.33
2022-10-07T00:52:00.492Z,13.34
2022-10-07T00:53:01.412Z,13.34
2022-10-07T00:54:01.341Z,13.34
2022-10-07T00:55:03.398Z,13.34
2022-10-07T00:56:00.943Z,13.34
2022-10-07T00:57:00.297Z,13.30
2022-10-07T00:58:01.924Z,13.30
2022-10-07T00:59:00.801Z,13.30
2022-10-07T01:00:01.021Z,13.30
2022-10-07T01:01:00.719Z,13.30
2022-10-07T01:02:00.381Z,13.29
2022-10-07T01:03:00.438Z,13.29
2022-10-07T01:04:00.394Z,13.29
2022-10-07T01:05:01.948Z,13.29
2022-10-07T01:06:00.711Z,13.29
2022-10-07T01:07:00.521Z,13.27
2022-10-07T01:08:00.387Z,13.27
2022-10-07T01:09:00.310Z,13.27
2022-10-07T01:10:00.583Z,13.27
2022-10-07T01:11:01.309Z,13.27
2022-10-07T01:12:06.584Z,13.26
2022-10-07T01:13:03.870Z,13.26
2022-10-07T01:14:05.385Z,13.26
2022-10-07T01:15:00.257Z,13.26
2022-10-07T01:16:00.259Z,13.26
2022-10-07T01:17:04.162Z,13.25
2022-10-07T01:18:07.481Z,13.25
2022-10-07T01:19:01.308Z,13.25
2022-10-07T01:20:10.174Z,13.25
2022-10-07T01:21:10.170Z,13.25
2022-10-07T01:22:07.000Z,13.23
2022-10-07T01:23:03.544Z,13.23
2022-10-07T01:24:07.631Z,13.23
2022-10-07T01:25:10.224Z,13.23
2022-10-07T01:26:00.254Z,13.23
2022-10-07T01:27:04.952Z,13.19
2022-10-07T01:28:04.458Z,13.19
2022-10-07T01:29:03.264Z,13.19
2022-10-07T01:30:03.155Z,13.19
2022-10-07T01:31:03.482Z,13.19
2022-10-07T01:32:03.047Z,13.19
2022-10-07T01:33:03.403Z,13.19
2022-10-07T01:34:01.799Z,13.19
2022-10-07T01:35:00.932Z,13.19
2022-10-07T01:36:07.196Z,13.19
2022-10-07T01:37:02.399Z,13.15
2022-10-07T01:38:04.513Z,13.15
2022-10-07T01:39:01.864Z,13.15
2022-10-07T01:40:03.368Z,13.15
2022-10-07T01:41:03.502Z,13.15
2022-10-07T01:42:00.290Z,13.15
2022-10-07T01:43:00.517Z,13.15
2022-10-07T01:44:00.443Z,13.15
2022-10-07T01:45:01.611Z,13.15
2022-10-07T01:46:01.324Z,13.15
2022-10-07T01:47:00.403Z,13.13
2022-10-07T01:48:00.533Z,13.13
2022-10-07T01:49:00.279Z,13.13
2022-10-07T01:50:00.297Z,13.13
2022-10-07T01:51:00.343Z,13.13
2022-10-07T01:52:10.208Z,13.11
2022-10-07T01:53:10.169Z,13.11
2022-10-07T01:54:03.574Z,13.11
2022-10-07T01:55:07.841Z,13.11
2022-10-07T01:56:12.883Z,13.11
2022-10-07T01:57:09.034Z,13.12
2022-10-07T01:58:07.734Z,13.12
2022-10-07T01:59:10.179Z,13.12
2022-10-07T02:00:03.980Z,13.12
2022-10-07T02:01:07.798Z,13.12
2022-10-07T02:02:10.204Z,13.12
2022-10-07T02:03:10.193Z,13.12
2022-10-07T02:04:01.332Z,13.12
2022-10-07T02:05:10.201Z,13.12
2022-10-07T02:06:05.413Z,13.12
2022-10-07T02:07:10.195Z,13.12
2022-10-07T02:08:01.284Z,13.12
2022-10-07T02:09:02.474Z,13.12
2022-10-07T02:10:06.921Z,13.12
2022-10-07T02:11:05.050Z,13.12
2022-10-07T02:12:10.226Z,13.09
2022-10-07T02:13:03.518Z,13.09
2022-10-07T02:14:01.298Z,13.09
2022-10-07T02:15:10.189Z,13.09
2022-10-07T02:16:05.741Z,13.09
2022-10-07T02:17:04.184Z,13.03
2022-10-07T02:18:02.214Z,13.03
2022-10-07T02:19:02.183Z,13.03
2022-10-07T02:20:01.763Z,13.03
2022-10-07T02:21:03.806Z,13.03
2022-10-07T02:22:00.721Z,13.03
2022-10-07T02:23:01.489Z,13.03
2022-10-07T02:24:00.989Z,13.03
2022-10-07T02:25:00.284Z,13.03
2022-10-07T02:26:01.975Z,13.03
2022-10-07T02:27:02.775Z,13.01
2022-10-07T02:28:01.028Z,13.01
2022-10-07T02:29:02.527Z,13.01
2022-10-07T02:30:03.685Z,13.01
2022-10-07T02:31:02.162Z,13.01
2022-10-07T02:32:04.551Z,12.99
2022-10-07T02:33:01.809Z,12.99
2022-10-07T02:34:03.096Z,12.99
2022-10-07T02:35:04.260Z,12.99
2022-10-07T02:36:03.281Z,12.99
2022-10-07T02:37:04.132Z,13.02
2022-10-07T02:38:03.495Z,13.02
2022-10-07T02:39:00.437Z,13.02
2022-10-07T02:40:01.460Z,13.02
2022-10-07T02:41:07.690Z,13.02
2022-10-07T02:42:03.841Z,13.08
2022-10-07T02:43:05.363Z,13.08
2022-10-07T02:44:10.179Z,13.08
2022-10-07T02:45:07.336Z,13.08
2022-10-07T02:46:03.628Z,13.08
2022-10-07T02:47:00.327Z,13.07
2022-10-07T02:48:03.032Z,13.07
2022-10-07T02:49:03.343Z,13.07
2022-10-07T02:50:01.052Z,13.07
2022-10-07T02:51:03.771Z,13.07
2022-10-07T02:52:02.001Z,13.10
2022-10-07T02:53:01.256Z,13.10
2022-10-07T02:54:01.328Z,13.10
2022-10-07T02:55:02.739Z,13.10
2022-10-07T02:56:01.338Z,13.10
2022-10-07T02:57:00.933Z,13.10
2022-10-07T02:58:02.435Z,13.10
2022-10-07T02:59:01.295Z,13.10
2022-10-07T03:00:01.192Z,13.10
2022-10-07T03:01:01.380Z,13.10
2022-10-07T03:02:02.843Z,13.05
2022-10-07T03:03:01.040Z,13.05
2022-10-07T03:04:00.425Z,13.05
2022-10-07T03:05:00.606Z,13.05
2022-10-07T03:06:00.295Z,13.05
2022-10-07T03:07:00.593Z,13.03
2022-10-07T03:08:01.893Z,13.03
2022-10-07T03:09:00.621Z,13.03
2022-10-07T03:10:01.178Z,13.03
2022-10-07T03:11:00.268Z,13.03
2022-10-07T03:12:00.316Z,12.99
2022-10-07T03:13:00.493Z,12.99
2022-10-07T03:14:00.269Z,12.99
2022-10-07T03:15:00.276Z,12.99
2022-10-07T03:16:00.743Z,12.99
2022-10-07T03:17:01.007Z,12.95
2022-10-07T03:18:00.286Z,12.95
2022-10-07T03:19:00.401Z,12.95
2022-10-07T03:20:00.307Z,12.95
2022-10-07T03:21:00.265Z,12.95
2022-10-07T03:22:00.276Z,12.93
2022-10-07T03:23:00.273Z,12.93
2022-10-07T03:24:00.272Z,12.93
2022-10-07T03:25:00.607Z,12.93
2022-10-07T03:26:00.267Z,12.93
2022-10-07T03:27:00.258Z,12.87
2022-10-07T03:28:00.362Z,12.87
2022-10-07T03:29:00.293Z,12.87
2022-10-07T03:30:00.290Z,12.87
2022-10-07T03:31:04.774Z,12.87
2022-10-07T03:32:00.712Z,12.86
2022-10-07T03:33:00.269Z,12.86
2022-10-07T03:34:00.267Z,12.86
2022-10-07T03:35:00.261Z,12.86
2022-10-07T03:36:00.442Z,12.86
2022-10-07T03:37:00.299Z,12.86
2022-10-07T03:38:00.310Z,12.86
2022-10-07T03:39:00.283Z,12.86
2022-10-07T03:40:00.275Z,12.86
2022-10-07T03:41:00.471Z,12.86
2022-10-07T03:42:00.379Z,12.85
2022-10-07T03:43:00.443Z,12.85
2022-10-07T03:44:00.303Z,12.85
2022-10-07T03:45:00.302Z,12.85
2022-10-07T03:46:00.494Z,12.85
2022-10-07T03:47:00.290Z,12.83
2022-10-07T03:48:00.267Z,12.83
2022-10-07T03:49:00.381Z,12.83
2022-10-07T03:50:00.278Z,12.83
2022-10-07T03:51:00.270Z,12.83
2022-10-07T03:52:00.420Z,12.83
2022-10-07T03:53:00.278Z,12.83
2022-10-07T03:54:00.495Z,12.83
2022-10-07T03:55:00.310Z,12.83
2022-10-07T03:56:00.282Z,12.83
2022-10-07T03:57:00.304Z,12.81
2022-10-07T03:58:00.263Z,12.81
2022-10-07T03:59:00.720Z,12.81
2022-10-07T04:00:00.346Z,12.81
2022-10-07T04:01:04.678Z,12.81
2022-10-07T04:02:00.387Z,12.79
2022-10-07T04:03:00.423Z,12.79
2022-10-07T04:04:00.291Z,12.79
2022-10-07T04:05:00.288Z,12.79
2022-10-07T04:06:00.643Z,12.79
2022-10-07T04:07:00.260Z,12.78
2022-10-07T04:08:00.660Z,12.78
2022-10-07T04:09:00.391Z,12.78
2022-10-07T04:10:00.397Z,12.78
2022-10-07T04:11:00.813Z,12.78
2022-10-07T04:12:00.383Z,12.81
2022-10-07T04:13:00.274Z,12.81
2022-10-07T04:14:00.304Z,12.81
2022-10-07T04:15:00.388Z,12.81
2022-10-07T04:16:09.251Z,12.81
2022-10-07T04:17:00.308Z,12.79
2022-10-07T04:18:00.256Z,12.79
2022-10-07T04:19:00.323Z,12.79
2022-10-07T04:20:00.282Z,12.79
2022-10-07T04:21:00.523Z,12.79
2022-10-07T04:22:02.896Z,12.80
2022-10-07T04:23:00.257Z,12.80
2022-10-07T04:24:00.325Z,12.80
2022-10-07T04:25:00.267Z,12.80
2022-10-07T04:26:00.399Z,12.80
2022-10-07T04:27:00.284Z,12.80
2022-10-07T04:28:01.898Z,12.80
2022-10-07T04:29:00.344Z,12.80
2022-10-07T04:30:00.302Z,12.80
2022-10-07T04:31:02.451Z,12.80
2022-10-07T04:32:00.262Z,12.83
2022-10-07T04:33:00.855Z,12.83
2022-10-07T04:34:00.270Z,12.83
2022-10-07T04:35:00.257Z,12.83
2022-10-07T04:36:04.440Z,12.83
2022-10-07T04:37:00.340Z,12.85
2022-10-07T04:38:00.272Z,12.85
2022-10-07T04:39:00.378Z,12.85
2022-10-07T04:40:01.286Z,12.85
2022-10-07T04:41:04.648Z,12.85
2022-10-07T04:42:00.286Z,12.88
2022-10-07T04:43:00.265Z,12.88
2022-10-07T04:44:00.340Z,12.88
2022-10-07T04:45:00.318Z,12.88
2022-10-07T04:46:02.448Z,12.88
2022-10-07T04:47:00.446Z,12.89
2022-10-07T04:48:00.809Z,12.89
2022-10-07T04:49:00.294Z,12.89
2022-10-07T04:50:01.047Z,12.89
2022-10-07T04:51:02.131Z,12.89
2022-10-07T04:52:00.278Z,12.92
2022-10-07T04:53:00.312Z,12.92
2022-10-07T04:54:00.285Z,12.92
2022-10-07T04:55:00.281Z,12.92
2022-10-07T04:56:00.298Z,12.92
2022-10-07T04:57:00.319Z,12.89
2022-10-07T04:58:00.266Z,12.89
2022-10-07T04:59:00.273Z,12.89
2022-10-07T05:00:00.439Z,12.89
2022-10-07T05:01:00.513Z,12.89
2022-10-07T05:02:00.351Z,12.91
2022-10-07T05:03:00.594Z,12.91
2022-10-07T05:04:00.457Z,12.91
2022-10-07T05:05:00.305Z,12.91
2022-10-07T05:06:05.311Z,12.91
2022-10-07T05:07:00.274Z,12.90
2022-10-07T05:08:00.270Z,12.90
2022-10-07T05:09:00.282Z,12.90
2022-10-07T05:10:00.278Z,12.90
2022-10-07T05:11:01.131Z,12.90
2022-10-07T05:12:00.263Z,12.82
2022-10-07T05:13:00.261Z,12.82
2022-10-07T05:14:00.266Z,12.82
2022-10-07T05:15:00.311Z,12.82
2022-10-07T05:16:01.259Z,12.82
2022-10-07T05:17:00.316Z,12.82
2022-10-07T05:18:00.298Z,12.82
2022-10-07T05:19:00.500Z,12.82
2022-10-07T05:20:00.668Z,12.82
2022-10-07T05:21:03.312Z,12.82
2022-10-07T05:22:00.505Z,12.81
2022-10-07T05:23:00.262Z,12.81
2022-10-07T05:24:00.269Z,12.81
2022-10-07T05:25:00.333Z,12.81
2022-10-07T05:26:01.500Z,12.81
2022-10-07T05:27:00.285Z,12.80
2022-10-07T05:28:00.488Z,12.80
2022-10-07T05:29:00.271Z,12.80
2022-10-07T05:30:00.296Z,12.80
2022-10-07T05:31:09.679Z,12.80
2022-10-07T05:32:04.727Z,12.77
2022-10-07T05:33:00.278Z,12.77
2022-10-07T05:34:00.278Z,12.77
2022-10-07T05:35:00.269Z,12.77
2022-10-07T05:36:00.289Z,12.77
2022-10-07T05:37:00.357Z,12.78
2022-10-07T05:38:00.788Z,12.78
2022-10-07T05:39:00.287Z,12.78
2022-10-07T05:40:00.329Z,12.78
2022-10-07T05:41:01.628Z,12.78
2022-10-07T05:42:00.269Z,12.78
2022-10-07T05:43:00.290Z,12.78
2022-10-07T05:44:00.279Z,12.78
2022-10-07T05:45:00.326Z,12.78
2022-10-07T05:46:02.990Z,12.78
2022-10-07T05:47:00.266Z,12.79
2022-10-07T05:48:00.276Z,12.79
2022-10-07T05:49:00.270Z,12.79
2022-10-07T05:50:00.437Z,12.79
2022-10-07T05:51:00.304Z,12.79
2022-10-07T05:52:00.664Z,12.77
2022-10-07T05:53:00.273Z,12.77
2022-10-07T05:54:00.312Z,12.77
2022-10-07T05:55:00.500Z,12.77
2022-10-07T05:56:04.127Z,12.77
2022-10-07T05:57:00.265Z,12.79
2022-10-07T05:58:00.282Z,12.79
2022-10-07T05:59:03.285Z,12.79
2022-10-07T06:00:00.481Z,12.79
2022-10-07T06:01:15.184Z,12.79
2022-10-07T06:02:00.882Z,12.77
2022-10-07T06:03:00.451Z,12.77
2022-10-07T06:04:00.279Z,12.77
2022-10-07T06:05:00.258Z,12.77
2022-10-07T06:06:00.283Z,12.77
2022-10-07T06:07:00.289Z,12.76
2022-10-07T06:08:03.137Z,12.76
2022-10-07T06:09:09.954Z,12.76
2022-10-07T06:10:08.956Z,12.76
2022-10-07T06:11:09.420Z,12.76
2022-10-07T06:12:00.625Z,12.72
2022-10-07T06:13:00.301Z,12.72
2022-10-07T06:14:00.417Z,12.72
2022-10-07T06:15:00.259Z,12.72
2022-10-07T06:16:03.394Z,12.72
2022-10-07T06:17:00.394Z,12.74
2022-10-07T06:21:00.833Z,12.74
2022-10-07T06:22:00.294Z,12.80
2022-10-07T06:23:00.284Z,12.80
2022-10-07T06:24:00.288Z,12.80
2022-10-07T06:25:00.353Z,12.80
2022-10-07T06:26:01.678Z,12.80
2022-10-07T06:27:00.324Z,12.79
2022-10-07T06:28:00.396Z,12.79
2022-10-07T06:29:00.274Z,12.79
2022-10-07T06:30:00.556Z,12.79
2022-10-07T06:31:02.606Z,12.79
2022-10-07T06:32:00.319Z,12.79
2022-10-07T06:33:00.287Z,12.79
2022-10-07T06:34:00.297Z,12.79
2022-10-07T06:35:00.309Z,12.79
2022-10-07T06:36:04.288Z,12.79
2022-10-07T06:37:00.301Z,12.81
2022-10-07T06:38:00.279Z,12.81
2022-10-07T06:39:00.279Z,12.81
2022-10-07T06:40:00.320Z,12.81
2022-10-07T06:41:01.438Z,12.81
2022-10-07T06:42:00.347Z,12.83
2022-10-07T06:43:00.300Z,12.83
2022-10-07T06:44:00.281Z,12.83
2022-10-07T06:45:00.281Z,12.83
2022-10-07T06:46:01.819Z,12.83
2022-10-07T06:47:00.334Z,12.86
2022-10-07T06:48:00.417Z,12.86
2022-10-07T06:49:00.355Z,12.86
2022-10-07T06:50:00.287Z,12.86
2022-10-07T06:51:00.644Z,12.86
2022-10-07T06:52:00.285Z,12.91
2022-10-07T06:53:00.349Z,12.91
2022-10-07T06:54:00.296Z,12.91
2022-10-07T06:55:00.306Z,12.91
2022-10-07T06:56:01.444Z,12.91
2022-10-07T06:57:00.265Z,12.90
2022-10-07T06:58:00.506Z,12.90
2022-10-07T06:59:00.283Z,12.90
2022-10-07T07:00:00.366Z,12.90
2022-10-07T07:01:00.579Z,12.90
2022-10-07T07:02:00.358Z,12.95
2022-10-07T07:03:00.265Z,12.95
2022-10-07T07:04:00.312Z,12.95
2022-10-07T07:05:00.329Z,12.95
2022-10-07T07:06:00.322Z,12.95
2022-10-07T07:07:00.321Z,12.96
2022-10-07T07:08:00.285Z,12.96
2022-10-07T07:09:00.312Z,12.96
2022-10-07T07:10:00.311Z,12.96
2022-10-07T07:11:02.226Z,12.96
2022-10-07T07:12:00.261Z,13.05
2022-10-07T07:14:00.713Z,13.05
2022-10-07T07:15:00.328Z,13.05
2022-10-07T07:16:00.301Z,13.05
2022-10-07T07:17:00.400Z,13.07
2022-10-07T07:18:00.935Z,13.07
2022-10-07T07:19:01.652Z,13.07
2022-10-07T07:20:00.380Z,13.07
2022-10-07T07:21:02.088Z,13.07
2022-10-07T07:22:00.553Z,13.08
2022-10-07T07:23:00.568Z,13.08
2022-10-07T07:24:00.824Z,13.08
2022-10-07T07:25:00.346Z,13.08
2022-10-07T07:26:00.284Z,13.08
2022-10-07T07:27:00.266Z,13.08
2022-10-07T07:28:00.454Z,13.08
2022-10-07T07:29:01.593Z,13.08
2022-10-07T07:30:00.340Z,13.08
2022-10-07T07:31:04.688Z,13.08
2022-10-07T07:32:00.285Z,13.15
2022-10-07T07:33:00.511Z,13.15
2022-10-07T07:34:01.794Z,13.15
2022-10-07T07:35:00.333Z,13.15
2022-10-07T07:36:00.278Z,13.15
2022-10-07T07:37:00.285Z,13.18
2022-10-07T07:38:00.485Z,13.18
2022-10-07T07:39:01.422Z,13.18
2022-10-07T07:40:00.303Z,13.18
2022-10-07T07:41:04.126Z,13.18
2022-10-07T07:42:00.590Z,13.24
2022-10-07T07:43:00.276Z,13.24
2022-10-07T07:44:01.748Z,13.24
2022-10-07T07:45:00.279Z,13.24
2022-10-07T07:46:00.433Z,13.24
2022-10-07T07:47:00.287Z,13.31
2022-10-07T07:48:00.287Z,13.31
2022-10-07T07:49:00.288Z,13.31
2022-10-07T07:50:00.761Z,13.31
2022-10-07T07:51:04.084Z,13.31
2022-10-07T07:52:00.829Z,13.40
2022-10-07T07:53:00.285Z,13.40
2022-10-07T07:54:00.291Z,13.40
2022-10-07T07:55:00.430Z,13.40
2022-10-07T07:56:00.271Z,13.40
2022-10-07T07:57:00.302Z,13.45
2022-10-07T07:58:00.294Z,13.45
2022-10-07T07:59:00.865Z,13.45
2022-10-07T08:00:00.385Z,13.45
2022-10-07T08:01:03.092Z,13.45
2022-10-07T08:02:00.308Z,13.56
2022-10-07T08:03:00.351Z,13.56
2022-10-07T08:04:00.863Z,13.56
2022-10-07T08:05:00.300Z,13.56
2022-10-07T08:06:00.581Z,13.56
2022-10-07T08:07:00.300Z,13.62
2022-10-07T08:08:00.352Z,13.62
2022-10-07T08:09:00.401Z,13.62
2022-10-07T08:10:00.561Z,13.62
2022-10-07T08:11:08.141Z,13.62
2022-10-07T08:12:00.277Z,13.72
2022-10-07T08:13:00.292Z,13.72
2022-10-07T08:14:00.370Z,13.72
2022-10-07T08:15:00.297Z,13.72
2022-10-07T08:16:00.318Z,13.72
2022-10-07T08:17:00.287Z,13.78
2022-10-07T08:18:00.463Z,13.78
2022-10-07T08:19:00.528Z,13.78
2022-10-07T08:20:00.336Z,13.78
2022-10-07T08:21:01.871Z,13.78
2022-10-07T08:22:00.273Z,13.88
2022-10-07T08:23:00.264Z,13.88
2022-10-07T08:24:01.320Z,13.88
2022-10-07T08:25:00.336Z,13.88
2022-10-07T08:26:00.359Z,13.88
2022-10-07T08:27:00.275Z,13.99
2022-10-07T08:28:00.561Z,13.99
2022-10-07T08:29:00.633Z,13.99
2022-10-07T08:30:00.316Z,13.99
2022-10-07T08:31:01.986Z,13.99
2022-10-07T08:32:00.267Z,14.08
2022-10-07T08:33:01.493Z,14.08
2022-10-07T08:34:01.250Z,14.08
2022-10-07T08:35:00.366Z,14.08
2022-10-07T08:36:01.167Z,14.08
2022-10-07T08:37:00.258Z,14.17
2022-10-07T08:38:00.308Z,14.17
2022-10-07T08:39:01.368Z,14.17
2022-10-07T08:40:00.311Z,14.17
2022-10-07T08:41:09.189Z,14.17
2022-10-07T08:42:04.430Z,14.26
2022-10-07T08:43:00.533Z,14.26
2022-10-07T08:44:14.377Z,14.26
2022-10-07T08:45:00.461Z,14.26
2022-10-07T08:46:00.726Z,14.26
2022-10-07T08:47:00.255Z,14.36
2022-10-07T08:48:02.319Z,14.36
2022-10-07T08:49:08.315Z,14.36
2022-10-07T08:50:14.059Z,14.36
2022-10-07T08:51:08.260Z,14.36
2022-10-07T08:52:03.379Z,14.47
2022-10-07T08:53:02.772Z,14.47
2022-10-07T08:54:00.409Z,14.47
2022-10-07T08:55:00.490Z,14.47
2022-10-07T08:56:03.515Z,14.47
2022-10-07T08:57:07.613Z,14.61
2022-10-07T08:58:00.261Z,14.61
2022-10-07T08:59:09.685Z,14.61
2022-10-07T09:00:01.327Z,14.61
2022-10-07T09:01:10.249Z,14.61
2022-10-07T09:02:10.223Z,14.71
2022-10-07T09:03:10.216Z,14.71
2022-10-07T09:04:10.224Z,14.71
2022-10-07T09:05:10.243Z,14.71
2022-10-07T09:06:02.637Z,14.71
2022-10-07T09:07:00.267Z,14.83
2022-10-07T09:08:03.371Z,14.83
2022-10-07T09:09:03.578Z,14.83
2022-10-07T09:10:00.284Z,14.83
2022-10-07T09:11:07.187Z,14.83
2022-10-07T09:12:02.839Z,15.02
2022-10-07T09:13:03.617Z,15.02
2022-10-07T09:14:07.673Z,15.02
2022-10-07T09:15:01.756Z,15.02
2022-10-07T09:16:10.296Z,15.02
2022-10-07T09:17:02.309Z,15.13
2022-10-07T09:18:03.036Z,15.13
2022-10-07T09:19:01.593Z,15.13
2022-10-07T09:20:04.833Z,15.13
2022-10-07T09:21:04.090Z,15.13
2022-10-07T09:22:05.547Z,15.23
2022-10-07T09:23:01.919Z,15.23
2022-10-07T09:24:10.221Z,15.23
2022-10-07T09:25:11.395Z,15.23
2022-10-07T09:26:00.273Z,15.23
2022-10-07T09:27:01.780Z,15.42
2022-10-07T09:28:00.350Z,15.42
2022-10-07T09:29:00.286Z,15.42
2022-10-07T09:30:00.425Z,15.42
2022-10-07T09:31:00.363Z,15.42
2022-10-07T09:32:00.292Z,15.56
2022-10-07T09:33:01.844Z,15.56
2022-10-07T09:34:00.428Z,15.56
2022-10-07T09:35:00.279Z,15.56
2022-10-07T09:36:06.027Z,15.56
2022-10-07T09:37:10.259Z,15.82
2022-10-07T09:38:01.395Z,15.82
2022-10-07T09:39:10.218Z,15.82
2022-10-07T09:40:10.231Z,15.82
2022-10-07T09:41:07.494Z,15.82
2022-10-07T09:42:01.040Z,15.87
2022-10-07T09:43:01.504Z,15.87
2022-10-07T09:44:00.245Z,15.87
2022-10-07T09:45:01.842Z,15.87
2022-10-07T09:46:00.463Z,15.87
2022-10-07T09:47:10.236Z,15.95
2022-10-07T09:48:03.601Z,15.95
2022-10-07T09:49:01.020Z,15.95
2022-10-07T09:50:00.543Z,15.95
2022-10-07T09:51:10.246Z,15.95
2022-10-07T09:52:02.027Z,16.05
2022-10-07T09:53:00.720Z,16.05
2022-10-07T09:54:02.800Z,16.05
2022-10-07T09:55:10.230Z,16.05
2022-10-07T09:56:00.290Z,16.05
2022-10-07T09:57:01.560Z,16.08
2022-10-07T09:58:01.511Z,16.08
2022-10-07T09:59:10.202Z,16.08
2022-10-07T10:00:10.902Z,16.08
2022-10-07T10:01:01.809Z,16.08
2022-10-07T10:02:10.349Z,16.05
2022-10-07T10:03:05.490Z,16.05
2022-10-07T10:04:00.306Z,16.05
2022-10-07T10:05:00.756Z,16.05
2022-10-07T10:06:01.338Z,16.05
2022-10-07T10:07:02.878Z,16.13
2022-10-07T10:08:03.222Z,16.13
2022-10-07T10:09:00.268Z,16.13
2022-10-07T10:10:10.181Z,16.13
2022-10-07T10:11:01.422Z,16.13
2022-10-07T10:12:05.022Z,16.20
2022-10-07T10:13:01.889Z,16.20
2022-10-07T10:14:10.176Z,16.20
2022-10-07T10:15:00.583Z,16.20
2022-10-07T10:16:02.072Z,16.20
2022-10-07T10:17:00.410Z,16.35
2022-10-07T10:18:00.490Z,16.35
2022-10-07T10:19:02.204Z,16.35
2022-10-07T10:20:10.208Z,16.35
2022-10-07T10:21:10.751Z,16.35
2022-10-07T10:22:00.337Z,16.44
2022-10-07T10:23:01.347Z,16.44
2022-10-07T10:24:01.779Z,16.44
2022-10-07T10:25:00.308Z,16.44
2022-10-07T10:26:07.593Z,16.44
2022-10-07T10:27:03.551Z,16.50
2022-10-07T10:28:08.518Z,16.50
2022-10-07T10:29:10.403Z,16.50
2022-10-07T10:30:02.993Z,16.50
2022-10-07T10:31:07.066Z,16.50
2022-10-07T10:32:00.260Z,16.72
2022-10-07T10:33:08.640Z,16.72
2022-10-07T10:34:09.583Z,16.72
2022-10-07T10:35:10.282Z,16.72
2022-10-07T10:36:08.775Z,16.72
2022-10-07T10:37:04.822Z,16.91
2022-10-07T10:38:10.180Z,16.91
2022-10-07T10:39:00.245Z,16.91
2022-10-07T10:40:10.225Z,16.91
2022-10-07T10:41:03.288Z,16.91
2022-10-07T10:42:04.036Z,16.93
2022-10-07T10:43:01.279Z,16.93
2022-10-07T10:44:00.257Z,16.93
2022-10-07T10:45:00.253Z,16.93
2022-10-07T10:46:10.260Z,16.93
2022-10-07T10:47:06.850Z,17.04
2022-10-07T10:48:01.280Z,17.04
2022-10-07T10:49:10.177Z,17.04
2022-10-07T10:50:00.253Z,17.04
2022-10-07T10:51:07.777Z,17.04
2022-10-07T10:52:03.561Z,17.11
2022-10-07T10:53:10.175Z,17.11
2022-10-07T10:54:10.179Z,17.11
2022-10-07T10:55:10.225Z,17.11
2022-10-07T10:56:10.177Z,17.11
2022-10-07T10:57:03.537Z,17.27
2022-10-07T10:58:10.197Z,17.27
2022-10-07T10:59:10.172Z,17.27
2022-10-07T11:00:09.161Z,17.27
2022-10-07T11:01:09.806Z,17.27
2022-10-07T11:02:10.231Z,17.42
2022-10-07T11:03:10.234Z,17.42
2022-10-07T11:04:01.296Z,17.42
2022-10-07T11:05:04.699Z,17.42
2022-10-07T11:06:03.209Z,17.42
2022-10-07T11:07:10.212Z,17.43
2022-10-07T11:08:10.233Z,17.43
2022-10-07T11:09:01.385Z,17.43
2022-10-07T11:10:10.229Z,17.43
2022-10-07T11:11:04.082Z,17.43
2022-10-07T11:12:01.789Z,17.54
2022-10-07T11:13:10.199Z,17.54
2022-10-07T11:14:04.121Z,17.54
2022-10-07T11:15:05.951Z,17.54
2022-10-07T11:16:04.244Z,17.54
2022-10-07T11:17:03.912Z,17.50
2022-10-07T11:18:05.275Z,17.50
2022-10-07T11:19:04.414Z,17.50
2022-10-07T11:20:04.941Z,17.50
2022-10-07T11:21:02.794Z,17.50
2022-10-07T11:22:00.766Z,17.61
2022-10-07T11:23:04.054Z,17.61
2022-10-07T11:24:03.418Z,17.61
2022-10-07T11:25:06.533Z,17.61
2022-10-07T11:26:02.078Z,17.61
2022-10-07T11:27:07.612Z,17.85
2022-10-07T11:28:10.421Z,17.85
2022-10-07T11:29:02.955Z,17.85
2022-10-07T11:30:05.474Z,17.85
2022-10-07T11:31:10.326Z,17.85
2022-10-07T11:32:05.149Z,18.03
2022-10-07T11:33:00.425Z,18.03
2022-10-07T11:34:01.298Z,18.03
2022-10-07T11:35:00.287Z,18.03
2022-10-07T11:36:07.943Z,18.03
2022-10-07T11:37:04.084Z,18.06
2022-10-07T11:38:10.247Z,18.06
2022-10-07T11:39:00.439Z,18.06
2022-10-07T11:40:03.394Z,18.06
2022-10-07T11:41:06.145Z,18.06
2022-10-07T11:42:03.052Z,17.82
2022-10-07T11:43:05.509Z,17.82
2022-10-07T11:44:07.024Z,17.82
2022-10-07T11:45:04.181Z,17.82
2022-10-07T11:46:06.772Z,17.82
2022-10-07T11:47:02.358Z,17.90
2022-10-07T11:48:03.963Z,17.90
2022-10-07T11:49:10.201Z,17.90
2022-10-07T11:50:07.650Z,17.90
2022-10-07T11:51:02.825Z,17.90
2022-10-07T11:52:09.377Z,18.09
2022-10-07T11:53:04.818Z,18.09
2022-10-07T11:54:02.043Z,18.09
2022-10-07T11:55:04.251Z,18.09
2022-10-07T11:56:01.671Z,18.09
2022-10-07T11:57:00.425Z,18.18
2022-10-07T11:58:02.159Z,18.18
2022-10-07T11:59:02.526Z,18.18
2022-10-07T12:00:10.224Z,18.18
2022-10-07T12:01:10.175Z,18.18
2022-10-07T12:02:00.669Z,18.38
2022-10-07T12:03:10.208Z,18.38
2022-10-07T12:04:10.181Z,18.38
2022-10-07T12:05:01.365Z,18.38
2022-10-07T12:06:08.345Z,18.38
2022-10-07T12:07:10.176Z,18.42
2022-10-07T12:08:10.181Z,18.42
2022-10-07T12:09:10.173Z,18.42
2022-10-07T12:10:00.274Z,18.42
2022-10-07T12:11:10.204Z,18.42
2022-10-07T12:12:00.279Z,18.41
2022-10-07T12:13:00.266Z,18.41
2022-10-07T12:14:10.176Z,18.41
2022-10-07T12:15:01.036Z,18.41
2022-10-07T12:16:10.211Z,18.41
2022-10-07T12:17:10.250Z,18.55
2022-10-07T12:18:03.624Z,18.55
2022-10-07T12:19:01.433Z,18.55
2022-10-07T12:20:10.180Z,18.55
2022-10-07T12:21:01.542Z,18.55
2022-10-07T12:22:10.183Z,18.42
2022-10-07T12:23:10.179Z,18.42
2022-10-07T12:24:08.630Z,18.42
2022-10-07T12:25:11.269Z,18.42
2022-10-07T12:26:01.606Z,18.42
2022-10-07T12:27:10.182Z,18.38
2022-10-07T12:28:00.479Z,18.38
2022-10-07T12:29:00.496Z,18.38
2022-10-07T12:30:00.329Z,18.38
2022-10-07T12:31:00.262Z,18.38
2022-10-07T12:32:00.597Z,18.43
2022-10-07T12:33:10.197Z,18.43
2022-10-07T12:34:03.563Z,18.43
2022-10-07T12:35:10.205Z,18.43
2022-10-07T12:36:10.208Z,18.43
2022-10-07T12:37:10.181Z,18.49
2022-10-07T12:38:01.279Z,18.49
2022-10-07T12:39:00.268Z,18.49
2022-10-07T12:40:04.781Z,18.49
2022-10-07T12:41:05.493Z,18.49
2022-10-07T12:42:00.548Z,18.57
2022-10-07T12:43:05.641Z,18.57
2022-10-07T12:44:00.296Z,18.57
2022-10-07T12:45:01.205Z,18.57
2022-10-07T12:46:03.750Z,18.57
2022-10-07T12:47:05.029Z,18.45
2022-10-07T12:48:01.109Z,18.45
2022-10-07T12:49:00.424Z,18.45
2022-10-07T12:50:02.920Z,18.45
2022-10-07T12:51:01.956Z,18.45
2022-10-07T12:52:04.070Z,18.59
2022-10-07T12:53:01.639Z,18.59
2022-10-07T12:54:00.617Z,18.59
2022-10-07T12:55:04.275Z,18.59
2022-10-07T12:56:00.637Z,18.59